Crocus, North Dakota
Current Conditions -  °F | °C
As of 5:15 AM on Sunday 23 Nov 2014 (Local Time) from K06D Reporting Station
Overcast Overcast  
Wind Chill: -5°   Ceiling: 3700
Heat Index: -1°   Visibility: 10mi
Dew Point: -1°   Wind: 7mph
Humidity: 100%   Direction: 200°SSW
Pressure: 29.31"   Gusts: NA
Location:  48.8584°N, 99.1311°W
Report Text: K06D 231115Z AUTO 20006KT 10SM OVC037 M01/M01 A2931 RMK AO2
Loading
Personal Weather Stations






























Interactive Weather Map New forecast layout! Learn more

10-Day Weather Forecast

Advertisements
Track Severe Weather on mobile